sensor_id;sensor_type;location;lat;lon;timestamp;temperature;humidity
69944;DHT22;57257;48.408;-4.498;2022-11-20T00:01:14;12.12;80.92
69944;DHT22;57257;48.408;-4.498;2022-11-20T00:03:40;12.13;80.84
69944;DHT22;57257;48.408;-4.498;2022-11-20T00:06:08;12.14;81.06
69944;DHT22;57257;48.408;-4.498;2022-11-20T00:08:33;12.16;81.00
69944;DHT22;57257;48.408;-4.498;2022-11-20T00:11:04;12.17;81.14
69944;DHT22;57257;48.408;-4.498;2022-11-20T00:13:30;12.20;81.21
69944;DHT22;57257;48.408;-4.498;2022-11-20T00:15:57;12.22;81.65
69944;DHT22;57257;48.408;-4.498;2022-11-20T00:18:23;12.22;81.80
69944;DHT22;57257;48.408;-4.498;2022-11-20T00:20:48;12.26;81.73
69944;DHT22;57257;48.408;-4.498;2022-11-20T00:23:13;12.27;81.86
69944;DHT22;57257;48.408;-4.498;2022-11-20T00:25:39;12.30;81.90
69944;DHT22;57257;48.408;-4.498;2022-11-20T00:28:04;12.33;81.91
69944;DHT22;57257;48.408;-4.498;2022-11-20T00:30:30;12.37;82.28
69944;DHT22;57257;48.408;-4.498;2022-11-20T00:32:56;12.37;82.56
69944;DHT22;57257;48.408;-4.498;2022-11-20T00:35:22;12.41;82.55
69944;DHT22;57257;48.408;-4.498;2022-11-20T00:37:47;12.44;82.69
69944;DHT22;57257;48.408;-4.498;2022-11-20T00:40:13;12.45;82.70
69944;DHT22;57257;48.408;-4.498;2022-11-20T00:42:38;12.47;82.63
69944;DHT22;57257;48.408;-4.498;2022-11-20T00:45:04;12.54;82.71
69944;DHT22;57257;48.408;-4.498;2022-11-20T00:47:29;12.60;82.87
69944;DHT22;57257;48.408;-4.498;2022-11-20T00:49:55;12.61;83.05
69944;DHT22;57257;48.408;-4.498;2022-11-20T00:52:20;12.65;83.11
69944;DHT22;57257;48.408;-4.498;2022-11-20T00:54:45;12.71;83.32
69944;DHT22;57257;48.408;-4.498;2022-11-20T00:57:11;12.73;83.45
69944;DHT22;57257;48.408;-4.498;2022-11-20T00:59:36;12.75;83.48
69944;DHT22;57257;48.408;-4.498;2022-11-20T01:02:02;12.83;84.00
69944;DHT22;57257;48.408;-4.498;2022-11-20T01:04:27;12.87;84.15
69944;DHT22;57257;48.408;-4.498;2022-11-20T01:06:52;12.94;84.34
69944;DHT22;57257;48.408;-4.498;2022-11-20T01:09:18;12.97;84.35
69944;DHT22;57257;48.408;-4.498;2022-11-20T01:11:44;13.01;84.24
69944;DHT22;57257;48.408;-4.498;2022-11-20T01:14:13;13.01;84.11
69944;DHT22;57257;48.408;-4.498;2022-11-20T01:16:41;13.05;83.99
69944;DHT22;57257;48.408;-4.498;2022-11-20T01:19:13;13.09;83.82
69944;DHT22;57257;48.408;-4.498;2022-11-20T01:21:41;13.12;83.62
69944;DHT22;57257;48.408;-4.498;2022-11-20T01:24:08;13.14;83.41
69944;DHT22;57257;48.408;-4.498;2022-11-20T01:26:35;13.19;83.34
69944;DHT22;57257;48.408;-4.498;2022-11-20T01:29:02;13.18;83.19
69944;DHT22;57257;48.408;-4.498;2022-11-20T01:31:34;13.22;83.00
69944;DHT22;57257;48.408;-4.498;2022-11-20T01:34:03;13.25;82.85
69944;DHT22;57257;48.408;-4.498;2022-11-20T01:36:30;13.25;82.66
69944;DHT22;57257;48.408;-4.498;2022-11-20T01:38:58;13.26;82.40
69944;DHT22;57257;48.408;-4.498;2022-11-20T01:41:26;13.25;82.19
69944;DHT22;57257;48.408;-4.498;2022-11-20T01:44:12;13.25;81.93
69944;DHT22;57257;48.408;-4.498;2022-11-20T01:46:45;13.28;81.70
69944;DHT22;57257;48.408;-4.498;2022-11-20T01:49:19;13.28;81.43
69944;DHT22;57257;48.408;-4.498;2022-11-20T01:52:05;13.26;81.20
69944;DHT22;57257;48.408;-4.498;2022-11-20T01:54:38;13.29;81.01
69944;DHT22;57257;48.408;-4.498;2022-11-20T01:57:08;13.26;80.79
69944;DHT22;57257;48.408;-4.498;2022-11-20T01:59:37;13.28;80.63
69944;DHT22;57257;48.408;-4.498;2022-11-20T02:02:04;13.28;80.41
69944;DHT22;57257;48.408;-4.498;2022-11-20T02:04:30;13.28;80.20
69944;DHT22;57257;48.408;-4.498;2022-11-20T02:07:00;13.28;79.94
69944;DHT22;57257;48.408;-4.498;2022-11-20T02:09:27;13.28;79.82
69944;DHT22;57257;48.408;-4.498;2022-11-20T02:11:53;13.23;79.66
69944;DHT22;57257;48.408;-4.498;2022-11-20T02:14:19;13.23;79.47
69944;DHT22;57257;48.408;-4.498;2022-11-20T02:16:47;13.22;79.37
69944;DHT22;57257;48.408;-4.498;2022-11-20T02:19:30;13.18;79.26
69944;DHT22;57257;48.408;-4.498;2022-11-20T02:22:05;13.18;79.21
69944;DHT22;57257;48.408;-4.498;2022-11-20T02:24:34;13.15;79.05
69944;DHT22;57257;48.408;-4.498;2022-11-20T02:27:06;13.11;78.90
69944;DHT22;57257;48.408;-4.498;2022-11-20T02:29:37;13.08;78.82
69944;DHT22;57257;48.408;-4.498;2022-11-20T02:32:04;13.08;78.75
69944;DHT22;57257;48.408;-4.498;2022-11-20T02:34:29;13.04;78.65
69944;DHT22;57257;48.408;-4.498;2022-11-20T02:36:56;12.99;78.58
69944;DHT22;57257;48.408;-4.498;2022-11-20T02:39:24;12.99;78.41
69944;DHT22;57257;48.408;-4.498;2022-11-20T02:41:53;12.95;78.33
69944;DHT22;57257;48.408;-4.498;2022-11-20T02:44:18;12.94;78.26
69944;DHT22;57257;48.408;-4.498;2022-11-20T02:46:44;12.89;78.09
69944;DHT22;57257;48.408;-4.498;2022-11-20T02:49:10;12.88;78.03
69944;DHT22;57257;48.408;-4.498;2022-11-20T02:51:35;12.80;78.01
69944;DHT22;57257;48.408;-4.498;2022-11-20T02:54:00;12.80;77.91
69944;DHT22;57257;48.408;-4.498;2022-11-20T02:56:26;12.80;77.84
69944;DHT22;57257;48.408;-4.498;2022-11-20T02:58:52;12.77;77.86
69944;DHT22;57257;48.408;-4.498;2022-11-20T03:01:17;12.77;77.81
69944;DHT22;57257;48.408;-4.498;2022-11-20T03:03:43;12.75;77.71
69944;DHT22;57257;48.408;-4.498;2022-11-20T03:06:08;12.75;77.64
69944;DHT22;57257;48.408;-4.498;2022-11-20T03:08:34;12.77;77.57
69944;DHT22;57257;48.408;-4.498;2022-11-20T03:11:07;12.74;77.50
69944;DHT22;57257;48.408;-4.498;2022-11-20T03:13:33;12.71;77.44
69944;DHT22;57257;48.408;-4.498;2022-11-20T03:16:05;12.67;77.38
69944;DHT22;57257;48.408;-4.498;2022-11-20T03:18:31;12.64;77.46
69944;DHT22;57257;48.408;-4.498;2022-11-20T03:20:58;12.63;77.41
69944;DHT22;57257;48.408;-4.498;2022-11-20T03:23:24;12.64;77.46
69944;DHT22;57257;48.408;-4.498;2022-11-20T03:25:49;12.63;77.42
69944;DHT22;57257;48.408;-4.498;2022-11-20T03:28:15;12.61;77.44
69944;DHT22;57257;48.408;-4.498;2022-11-20T03:30:40;12.61;77.45
69944;DHT22;57257;48.408;-4.498;2022-11-20T03:33:06;12.63;77.49
69944;DHT22;57257;48.408;-4.498;2022-11-20T03:35:31;12.63;77.37
69944;DHT22;57257;48.408;-4.498;2022-11-20T03:37:57;12.65;77.28
69944;DHT22;57257;48.408;-4.498;2022-11-20T03:40:23;12.65;77.22
69944;DHT22;57257;48.408;-4.498;2022-11-20T03:42:48;12.69;77.12
69944;DHT22;57257;48.408;-4.498;2022-11-20T03:45:16;12.73;77.00
69944;DHT22;57257;48.408;-4.498;2022-11-20T03:47:42;12.73;77.01
69944;DHT22;57257;48.408;-4.498;2022-11-20T03:50:08;12.74;76.97
69944;DHT22;57257;48.408;-4.498;2022-11-20T03:52:34;12.75;76.92
69944;DHT22;57257;48.408;-4.498;2022-11-20T03:54:59;12.77;76.89
69944;DHT22;57257;48.408;-4.498;2022-11-20T03:57:25;12.78;76.93
69944;DHT22;57257;48.408;-4.498;2022-11-20T03:59:50;12.80;76.97
69944;DHT22;57257;48.408;-4.498;2022-11-20T04:02:15;12.75;76.92
69944;DHT22;57257;48.408;-4.498;2022-11-20T04:04:41;12.75;76.97
69944;DHT22;57257;48.408;-4.498;2022-11-20T04:07:06;12.80;76.93
69944;DHT22;57257;48.408;-4.498;2022-11-20T04:09:32;12.78;76.67
69944;DHT22;57257;48.408;-4.498;2022-11-20T04:11:57;12.81;76.20
69944;DHT22;57257;48.408;-4.498;2022-11-20T04:14:22;12.80;75.30
69944;DHT22;57257;48.408;-4.498;2022-11-20T04:16:48;12.77;74.27
69944;DHT22;57257;48.408;-4.498;2022-11-20T04:19:15;12.74;73.52
69944;DHT22;57257;48.408;-4.498;2022-11-20T04:21:42;12.71;72.66
69944;DHT22;57257;48.408;-4.498;2022-11-20T04:24:07;12.69;72.13
69944;DHT22;57257;48.408;-4.498;2022-11-20T04:26:34;12.65;71.79
69944;DHT22;57257;48.408;-4.498;2022-11-20T04:28:59;12.63;71.39
69944;DHT22;57257;48.408;-4.498;2022-11-20T04:31:28;12.60;70.83
69944;DHT22;57257;48.408;-4.498;2022-11-20T04:33:54;12.57;70.66
69944;DHT22;57257;48.408;-4.498;2022-11-20T04:36:22;12.51;70.48
69944;DHT22;57257;48.408;-4.498;2022-11-20T04:39:05;12.45;70.71
69944;DHT22;57257;48.408;-4.498;2022-11-20T04:41:34;12.38;70.59
69944;DHT22;57257;48.408;-4.498;2022-11-20T04:44:01;12.36;70.60
69944;DHT22;57257;48.408;-4.498;2022-11-20T04:46:32;12.30;70.68
69944;DHT22;57257;48.408;-4.498;2022-11-20T04:48:58;12.27;70.48
69944;DHT22;57257;48.408;-4.498;2022-11-20T04:51:24;12.26;70.46
69944;DHT22;57257;48.408;-4.498;2022-11-20T04:53:49;12.23;70.72
69944;DHT22;57257;48.408;-4.498;2022-11-20T04:56:15;12.20;70.38
69944;DHT22;57257;48.408;-4.498;2022-11-20T04:58:41;12.22;70.33
69944;DHT22;57257;48.408;-4.498;2022-11-20T05:01:12;12.23;70.46
69944;DHT22;57257;48.408;-4.498;2022-11-20T05:03:38;12.20;70.42
69944;DHT22;57257;48.408;-4.498;2022-11-20T05:06:05;12.19;70.51
69944;DHT22;57257;48.408;-4.498;2022-11-20T05:08:31;12.16;70.70
69944;DHT22;57257;48.408;-4.498;2022-11-20T05:11:11;12.14;70.65
69944;DHT22;57257;48.408;-4.498;2022-11-20T05:13:37;12.12;70.77
69944;DHT22;57257;48.408;-4.498;2022-11-20T05:16:08;12.10;70.78
69944;DHT22;57257;48.408;-4.498;2022-11-20T05:18:35;12.10;70.87
69944;DHT22;57257;48.408;-4.498;2022-11-20T05:21:01;12.09;70.85
69944;DHT22;57257;48.408;-4.498;2022-11-20T05:23:27;12.13;70.96
69944;DHT22;57257;48.408;-4.498;2022-11-20T05:25:53;12.12;70.97
69944;DHT22;57257;48.408;-4.498;2022-11-20T05:28:19;12.10;70.94
69944;DHT22;57257;48.408;-4.498;2022-11-20T05:30:45;12.10;70.75
69944;DHT22;57257;48.408;-4.498;2022-11-20T05:33:10;12.04;70.81
69944;DHT22;57257;48.408;-4.498;2022-11-20T05:35:35;11.99;70.99
69944;DHT22;57257;48.408;-4.498;2022-11-20T05:38:01;11.99;71.10
69944;DHT22;57257;48.408;-4.498;2022-11-20T05:40:26;11.93;71.22
69944;DHT22;57257;48.408;-4.498;2022-11-20T05:42:52;11.89;71.27
69944;DHT22;57257;48.408;-4.498;2022-11-20T05:45:17;11.86;71.28
69944;DHT22;57257;48.408;-4.498;2022-11-20T05:47:42;11.83;71.18
69944;DHT22;57257;48.408;-4.498;2022-11-20T05:50:08;11.79;71.27
69944;DHT22;57257;48.408;-4.498;2022-11-20T05:52:33;11.80;71.29
69944;DHT22;57257;48.408;-4.498;2022-11-20T05:54:59;11.75;71.32
69944;DHT22;57257;48.408;-4.498;2022-11-20T05:57:24;11.73;71.51
69944;DHT22;57257;48.408;-4.498;2022-11-20T05:59:50;11.75;71.47
69944;DHT22;57257;48.408;-4.498;2022-11-20T06:02:15;11.73;71.40
69944;DHT22;57257;48.408;-4.498;2022-11-20T06:04:41;11.72;71.42
69944;DHT22;57257;48.408;-4.498;2022-11-20T06:07:06;11.68;71.45
69944;DHT22;57257;48.408;-4.498;2022-11-20T06:09:32;11.68;71.44
69944;DHT22;57257;48.408;-4.498;2022-11-20T06:11:57;11.69;71.42
69944;DHT22;57257;48.408;-4.498;2022-11-20T06:14:23;11.69;71.38
69944;DHT22;57257;48.408;-4.498;2022-11-20T06:16:48;11.66;71.23
69944;DHT22;57257;48.408;-4.498;2022-11-20T06:19:14;11.65;71.38
69944;DHT22;57257;48.408;-4.498;2022-11-20T06:21:40;11.59;71.42
69944;DHT22;57257;48.408;-4.498;2022-11-20T06:24:05;11.56;71.45
69944;DHT22;57257;48.408;-4.498;2022-11-20T06:26:31;11.55;71.58
69944;DHT22;57257;48.408;-4.498;2022-11-20T06:28:56;11.49;71.61
69944;DHT22;57257;48.408;-4.498;2022-11-20T06:31:24;11.49;71.82
69944;DHT22;57257;48.408;-4.498;2022-11-20T06:33:50;11.49;71.81
69944;DHT22;57257;48.408;-4.498;2022-11-20T06:36:18;11.52;71.87
69944;DHT22;57257;48.408;-4.498;2022-11-20T06:38:44;11.54;71.84
69944;DHT22;57257;48.408;-4.498;2022-11-20T06:41:15;11.56;71.94
69944;DHT22;57257;48.408;-4.498;2022-11-20T06:43:41;11.58;71.83
69944;DHT22;57257;48.408;-4.498;2022-11-20T06:46:09;11.54;71.87
69944;DHT22;57257;48.408;-4.498;2022-11-20T06:48:35;11.58;72.01
69944;DHT22;57257;48.408;-4.498;2022-11-20T06:51:03;11.58;71.81
69944;DHT22;57257;48.408;-4.498;2022-11-20T06:53:29;11.61;71.83
69944;DHT22;57257;48.408;-4.498;2022-11-20T06:55:56;11.61;71.71
69944;DHT22;57257;48.408;-4.498;2022-11-20T06:58:23;11.65;71.48
69944;DHT22;57257;48.408;-4.498;2022-11-20T07:00:51;11.65;71.25
69944;DHT22;57257;48.408;-4.498;2022-11-20T07:03:16;11.65;71.18
69944;DHT22;57257;48.408;-4.498;2022-11-20T07:05:41;11.66;71.19
69944;DHT22;57257;48.408;-4.498;2022-11-20T07:08:07;11.69;71.01
69944;DHT22;57257;48.408;-4.498;2022-11-20T07:10:33;11.70;70.84
69944;DHT22;57257;48.408;-4.498;2022-11-20T07:12:58;11.72;70.85
69944;DHT22;57257;48.408;-4.498;2022-11-20T07:15:25;11.73;70.67
69944;DHT22;57257;48.408;-4.498;2022-11-20T07:17:51;11.73;70.49
69944;DHT22;57257;48.408;-4.498;2022-11-20T07:20:16;11.76;70.35
69944;DHT22;57257;48.408;-4.498;2022-11-20T07:22:41;11.78;70.31
69944;DHT22;57257;48.408;-4.498;2022-11-20T07:25:08;11.80;70.30
69944;DHT22;57257;48.408;-4.498;2022-11-20T07:27:34;11.82;70.28
69944;DHT22;57257;48.408;-4.498;2022-11-20T07:29:59;11.82;70.33
69944;DHT22;57257;48.408;-4.498;2022-11-20T07:32:25;11.80;70.31
69944;DHT22;57257;48.408;-4.498;2022-11-20T07:34:50;11.76;70.34
69944;DHT22;57257;48.408;-4.498;2022-11-20T07:37:16;11.78;70.27
69944;DHT22;57257;48.408;-4.498;2022-11-20T07:39:42;11.75;70.35
69944;DHT22;57257;48.408;-4.498;2022-11-20T07:42:07;11.76;70.31
69944;DHT22;57257;48.408;-4.498;2022-11-20T07:44:33;11.79;70.27
69944;DHT22;57257;48.408;-4.498;2022-11-20T07:46:58;11.79;70.22
69944;DHT22;57257;48.408;-4.498;2022-11-20T07:49:24;11.80;70.08
69944;DHT22;57257;48.408;-4.498;2022-11-20T07:51:53;11.82;70.06
69944;DHT22;57257;48.408;-4.498;2022-11-20T07:54:20;11.80;70.08
69944;DHT22;57257;48.408;-4.498;2022-11-20T07:56:45;11.82;70.07
69944;DHT22;57257;48.408;-4.498;2022-11-20T07:59:11;11.83;70.13
69944;DHT22;57257;48.408;-4.498;2022-11-20T08:01:40;11.82;70.08
69944;DHT22;57257;48.408;-4.498;2022-11-20T08:04:05;11.82;70.01
69944;DHT22;57257;48.408;-4.498;2022-11-20T08:06:31;11.82;69.92
69944;DHT22;57257;48.408;-4.498;2022-11-20T08:08:57;11.82;69.99
69944;DHT22;57257;48.408;-4.498;2022-11-20T08:11:22;11.85;69.82
69944;DHT22;57257;48.408;-4.498;2022-11-20T08:14:06;11.90;69.76
69944;DHT22;57257;48.408;-4.498;2022-11-20T08:16:45;11.93;69.79
69944;DHT22;57257;48.408;-4.498;2022-11-20T08:19:11;11.93;69.77
69944;DHT22;57257;48.408;-4.498;2022-11-20T08:21:37;11.97;69.57
69944;DHT22;57257;48.408;-4.498;2022-11-20T08:24:03;12.07;69.67
69944;DHT22;57257;48.408;-4.498;2022-11-20T08:26:28;12.22;69.35
69944;DHT22;57257;48.408;-4.498;2022-11-20T08:28:55;12.30;69.30
69944;DHT22;57257;48.408;-4.498;2022-11-20T08:31:21;12.41;69.18
69944;DHT22;57257;48.408;-4.498;2022-11-20T08:33:47;12.55;69.15
69944;DHT22;57257;48.408;-4.498;2022-11-20T08:36:12;12.71;68.81
69944;DHT22;57257;48.408;-4.498;2022-11-20T08:38:38;12.81;68.45
69944;DHT22;57257;48.408;-4.498;2022-11-20T08:41:04;12.85;67.97
69944;DHT22;57257;48.408;-4.498;2022-11-20T08:43:49;12.89;67.74
69944;DHT22;57257;48.408;-4.498;2022-11-20T08:46:15;12.88;67.46
69944;DHT22;57257;48.408;-4.498;2022-11-20T08:48:41;12.85;67.39
69944;DHT22;57257;48.408;-4.498;2022-11-20T08:51:06;12.88;67.39
69944;DHT22;57257;48.408;-4.498;2022-11-20T08:53:32;12.88;67.50
69944;DHT22;57257;48.408;-4.498;2022-11-20T08:55:57;12.89;67.43
69944;DHT22;57257;48.408;-4.498;2022-11-20T08:58:23;12.91;67.28
69944;DHT22;57257;48.408;-4.498;2022-11-20T09:00:49;12.91;67.24
69944;DHT22;57257;48.408;-4.498;2022-11-20T09:03:14;12.91;67.17
69944;DHT22;57257;48.408;-4.498;2022-11-20T09:05:40;12.92;67.20
69944;DHT22;57257;48.408;-4.498;2022-11-20T09:08:05;12.89;67.24
69944;DHT22;57257;48.408;-4.498;2022-11-20T09:10:31;12.94;67.29
69944;DHT22;57257;48.408;-4.498;2022-11-20T09:12:57;13.02;67.22
69944;DHT22;57257;48.408;-4.498;2022-11-20T09:15:23;13.12;67.24
69944;DHT22;57257;48.408;-4.498;2022-11-20T09:18:00;13.30;67.32
69944;DHT22;57257;48.408;-4.498;2022-11-20T09:20:27;13.52;67.16
69944;DHT22;57257;48.408;-4.498;2022-11-20T09:22:54;13.72;66.97
69944;DHT22;57257;48.408;-4.498;2022-11-20T09:25:20;13.90;66.83
69944;DHT22;57257;48.408;-4.498;2022-11-20T09:27:46;14.10;66.56
69944;DHT22;57257;48.408;-4.498;2022-11-20T09:30:13;14.31;66.25
69944;DHT22;57257;48.408;-4.498;2022-11-20T09:32:39;14.48;65.82
69944;DHT22;57257;48.408;-4.498;2022-11-20T09:35:05;14.49;65.02
69944;DHT22;57257;48.408;-4.498;2022-11-20T09:37:31;14.37;64.97
69944;DHT22;57257;48.408;-4.498;2022-11-20T09:39:56;14.25;65.42
69944;DHT22;57257;48.408;-4.498;2022-11-20T09:50:30;14.38;65.42
69944;DHT22;57257;48.408;-4.498;2022-11-20T09:53:40;14.49;65.40
69944;DHT22;57257;48.408;-4.498;2022-11-20T09:55:46;14.55;65.16
69944;DHT22;57257;48.408;-4.498;2022-11-20T09:58:17;14.65;65.30
69944;DHT22;57257;48.408;-4.498;2022-11-20T10:00:46;14.68;64.91
69944;DHT22;57257;48.408;-4.498;2022-11-20T10:06:36;14.82;64.77
69944;DHT22;57257;48.408;-4.498;2022-11-20T10:30:59;15.12;62.73
69944;DHT22;57257;48.408;-4.498;2022-11-20T10:33:27;15.12;62.67
69944;DHT22;57257;48.408;-4.498;2022-11-20T10:38:43;15.03;62.73
69944;DHT22;57257;48.408;-4.498;2022-11-20T10:41:18;14.98;62.72
69944;DHT22;57257;48.408;-4.498;2022-11-20T10:44:05;14.93;62.66
69944;DHT22;57257;48.408;-4.498;2022-11-20T10:46:40;14.87;62.55
69944;DHT22;57257;48.408;-4.498;2022-11-20T10:49:16;14.85;62.69
69944;DHT22;57257;48.408;-4.498;2022-11-20T10:52:09;14.81;62.55
69944;DHT22;57257;48.408;-4.498;2022-11-20T10:55:03;14.78;62.69
69944;DHT22;57257;48.408;-4.498;2022-11-20T11:00:21;14.88;62.83
69944;DHT22;57257;48.408;-4.498;2022-11-20T11:02:52;14.98;62.72
69944;DHT22;57257;48.408;-4.498;2022-11-20T11:05:41;15.02;61.85
69944;DHT22;57257;48.408;-4.498;2022-11-20T11:08:17;15.06;62.01
69944;DHT22;57257;48.408;-4.498;2022-11-20T11:10:57;15.08;61.93
69944;DHT22;57257;48.408;-4.498;2022-11-20T11:13:26;15.10;61.71
69944;DHT22;57257;48.408;-4.498;2022-11-20T11:15:52;15.13;61.93
69944;DHT22;57257;48.408;-4.498;2022-11-20T11:18:34;15.16;61.54
69944;DHT22;57257;48.408;-4.498;2022-11-20T11:21:02;15.15;61.11
69944;DHT22;57257;48.408;-4.498;2022-11-20T11:23:42;15.09;61.27
69944;DHT22;57257;48.408;-4.498;2022-11-20T11:26:21;15.08;61.19
69944;DHT22;57257;48.408;-4.498;2022-11-20T11:28:58;15.13;61.59
69944;DHT22;57257;48.408;-4.498;2022-11-20T11:31:26;15.22;61.81
69944;DHT22;57257;48.408;-4.498;2022-11-20T11:34:02;15.28;61.69
69944;DHT22;57257;48.408;-4.498;2022-11-20T11:36:28;15.26;61.00
69944;DHT22;57257;48.408;-4.498;2022-11-20T11:39:15;15.32;60.69
69944;DHT22;57257;48.408;-4.498;2022-11-20T11:41:42;15.36;61.10
69944;DHT22;57257;48.408;-4.498;2022-11-20T11:44:24;15.40;61.23
69944;DHT22;57257;48.408;-4.498;2022-11-20T11:47:20;15.47;61.48
69944;DHT22;57257;48.408;-4.498;2022-11-20T11:49:46;15.53;61.34
69944;DHT22;57257;48.408;-4.498;2022-11-20T11:52:17;15.53;60.47
69944;DHT22;57257;48.408;-4.498;2022-11-20T11:54:57;15.53;60.73
69944;DHT22;57257;48.408;-4.498;2022-11-20T12:00:05;15.70;60.49
69944;DHT22;57257;48.408;-4.498;2022-11-20T12:06:15;15.74;60.05
69944;DHT22;57257;48.408;-4.498;2022-11-20T12:08:39;15.79;60.51
69944;DHT22;57257;48.408;-4.498;2022-11-20T12:11:16;15.87;60.22
69944;DHT22;57257;48.408;-4.498;2022-11-20T12:16:20;15.71;59.01
69944;DHT22;57257;48.408;-4.498;2022-11-20T12:18:51;15.64;58.96
69944;DHT22;57257;48.408;-4.498;2022-11-20T12:24:14;15.67;59.07
69944;DHT22;57257;48.408;-4.498;2022-11-20T12:38:15;15.96;59.04
69944;DHT22;57257;48.408;-4.498;2022-11-20T12:40:48;15.93;59.53
69944;DHT22;57257;48.408;-4.498;2022-11-20T12:43:19;15.90;59.44
69944;DHT22;57257;48.408;-4.498;2022-11-20T12:46:08;15.83;59.78
69944;DHT22;57257;48.408;-4.498;2022-11-20T12:48:42;15.74;59.89
69944;DHT22;57257;48.408;-4.498;2022-11-20T12:59:28;15.64;61.23
69944;DHT22;57257;48.408;-4.498;2022-11-20T13:05:01;15.66;61.93
69944;DHT22;57257;48.408;-4.498;2022-11-20T13:07:32;15.64;62.10
69944;DHT22;57257;48.408;-4.498;2022-11-20T13:09:59;15.67;62.20
69944;DHT22;57257;48.408;-4.498;2022-11-20T13:12:34;15.70;62.22
69944;DHT22;57257;48.408;-4.498;2022-11-20T13:17:58;15.91;61.66
69944;DHT22;57257;48.408;-4.498;2022-11-20T13:20:25;16.00;61.52
69944;DHT22;57257;48.408;-4.498;2022-11-20T13:22:52;16.08;61.27
69944;DHT22;57257;48.408;-4.498;2022-11-20T13:25:38;16.20;61.35
69944;DHT22;57257;48.408;-4.498;2022-11-20T13:28:28;16.24;61.08
69944;DHT22;57257;48.408;-4.498;2022-11-20T13:30:55;16.34;60.90
69944;DHT22;57257;48.408;-4.498;2022-11-20T13:33:35;16.38;60.47
69944;DHT22;57257;48.408;-4.498;2022-11-20T13:36:04;16.47;60.49
69944;DHT22;57257;48.408;-4.498;2022-11-20T13:38:44;16.55;60.43
69944;DHT22;57257;48.408;-4.498;2022-11-20T13:41:11;16.71;60.44
69944;DHT22;57257;48.408;-4.498;2022-11-20T13:43:58;16.78;60.44
69944;DHT22;57257;48.408;-4.498;2022-11-20T13:46:35;16.75;60.06
69944;DHT22;57257;48.408;-4.498;2022-11-20T13:49:07;16.57;60.24
69944;DHT22;57257;48.408;-4.498;2022-11-20T13:51:44;16.44;60.24
69944;DHT22;57257;48.408;-4.498;2022-11-20T13:57:45;16.41;61.15
69944;DHT22;57257;48.408;-4.498;2022-11-20T14:00:20;16.58;60.92
69944;DHT22;57257;48.408;-4.498;2022-11-20T14:03:01;16.68;61.01
69944;DHT22;57257;48.408;-4.498;2022-11-20T14:05:28;16.81;61.04
69944;DHT22;57257;48.408;-4.498;2022-11-20T14:07:56;16.91;61.13
69944;DHT22;57257;48.408;-4.498;2022-11-20T14:10:27;17.03;61.01
69944;DHT22;57257;48.408;-4.498;2022-11-20T14:12:53;17.09;60.65
69944;DHT22;57257;48.408;-4.498;2022-11-20T14:15:33;17.05;60.44
69944;DHT22;57257;48.408;-4.498;2022-11-20T14:18:12;16.89;60.51
69944;DHT22;57257;48.408;-4.498;2022-11-20T14:20:38;16.67;60.05
69944;DHT22;57257;48.408;-4.498;2022-11-20T14:23:04;16.45;60.61
69944;DHT22;57257;48.408;-4.498;2022-11-20T14:25:30;16.31;60.93
69944;DHT22;57257;48.408;-4.498;2022-11-20T14:28:01;16.21;60.99
69944;DHT22;57257;48.408;-4.498;2022-11-20T14:30:45;16.13;60.99
69944;DHT22;57257;48.408;-4.498;2022-11-20T14:33:12;16.00;60.97
69944;DHT22;57257;48.408;-4.498;2022-11-20T14:35:50;15.91;61.28
69944;DHT22;57257;48.408;-4.498;2022-11-20T14:38:27;15.83;61.47
69944;DHT22;57257;48.408;-4.498;2022-11-20T14:40:54;15.73;61.63
69944;DHT22;57257;48.408;-4.498;2022-11-20T14:43:23;15.64;61.82
69944;DHT22;57257;48.408;-4.498;2022-11-20T14:45:58;15.59;62.00
69944;DHT22;57257;48.408;-4.498;2022-11-20T14:48:31;15.53;62.25
69944;DHT22;57257;48.408;-4.498;2022-11-20T14:50:57;15.47;62.41
69944;DHT22;57257;48.408;-4.498;2022-11-20T14:53:24;15.39;62.58
69944;DHT22;57257;48.408;-4.498;2022-11-20T14:55:58;15.28;62.81
69944;DHT22;57257;48.408;-4.498;2022-11-20T14:58:27;15.23;63.12
69944;DHT22;57257;48.408;-4.498;2022-11-20T15:01:01;15.22;63.31
69944;DHT22;57257;48.408;-4.498;2022-11-20T15:03:38;15.25;63.50
69944;DHT22;57257;48.408;-4.498;2022-11-20T15:06:10;15.19;63.57
69944;DHT22;57257;48.408;-4.498;2022-11-20T15:08:36;15.18;63.64
69944;DHT22;57257;48.408;-4.498;2022-11-20T15:11:02;15.18;63.75
69944;DHT22;57257;48.408;-4.498;2022-11-20T15:13:36;15.15;63.65
69944;DHT22;57257;48.408;-4.498;2022-11-20T15:16:04;15.08;63.76
69944;DHT22;57257;48.408;-4.498;2022-11-20T15:18:38;15.06;63.85
69944;DHT22;57257;48.408;-4.498;2022-11-20T15:21:14;15.02;63.95
69944;DHT22;57257;48.408;-4.498;2022-11-20T15:23:40;15.02;64.04
69944;DHT22;57257;48.408;-4.498;2022-11-20T15:26:07;14.99;64.21
69944;DHT22;57257;48.408;-4.498;2022-11-20T15:28:37;14.96;64.28
69944;DHT22;57257;48.408;-4.498;2022-11-20T15:31:04;14.95;64.36
69944;DHT22;57257;48.408;-4.498;2022-11-20T15:33:31;14.87;64.51
69944;DHT22;57257;48.408;-4.498;2022-11-20T15:35:57;14.84;64.64
69944;DHT22;57257;48.408;-4.498;2022-11-20T15:38:23;14.82;64.72
69944;DHT22;57257;48.408;-4.498;2022-11-20T15:40:48;14.79;64.82
69944;DHT22;57257;48.408;-4.498;2022-11-20T15:43:14;14.77;65.13
69944;DHT22;57257;48.408;-4.498;2022-11-20T15:45:45;14.75;65.25
69944;DHT22;57257;48.408;-4.498;2022-11-20T15:48:15;14.69;65.45
69944;DHT22;57257;48.408;-4.498;2022-11-20T15:51:03;14.71;65.47
69944;DHT22;57257;48.408;-4.498;2022-11-20T15:53:29;14.64;65.49
69944;DHT22;57257;48.408;-4.498;2022-11-20T15:55:55;14.58;65.69
69944;DHT22;57257;48.408;-4.498;2022-11-20T15:58:20;14.58;65.64
69944;DHT22;57257;48.408;-4.498;2022-11-20T16:00:48;14.52;65.73
69944;DHT22;57257;48.408;-4.498;2022-11-20T16:03:15;14.51;65.70
69944;DHT22;57257;48.408;-4.498;2022-11-20T16:05:41;14.45;65.80
69944;DHT22;57257;48.408;-4.498;2022-11-20T16:08:07;14.44;65.95
69944;DHT22;57257;48.408;-4.498;2022-11-20T16:10:32;14.38;65.95
69944;DHT22;57257;48.408;-4.498;2022-11-20T16:12:57;14.35;66.14
69944;DHT22;57257;48.408;-4.498;2022-11-20T16:15:41;14.27;66.29
69944;DHT22;57257;48.408;-4.498;2022-11-20T16:18:11;14.27;66.46
69944;DHT22;57257;48.408;-4.498;2022-11-20T16:20:36;14.23;66.55
69944;DHT22;57257;48.408;-4.498;2022-11-20T16:23:02;14.21;66.56
69944;DHT22;57257;48.408;-4.498;2022-11-20T16:25:28;14.20;66.58
69944;DHT22;57257;48.408;-4.498;2022-11-20T16:27:53;14.17;66.54
69944;DHT22;57257;48.408;-4.498;2022-11-20T16:30:19;14.13;66.67
69944;DHT22;57257;48.408;-4.498;2022-11-20T16:32:44;14.10;66.79
69944;DHT22;57257;48.408;-4.498;2022-11-20T16:35:10;14.09;66.89
69944;DHT22;57257;48.408;-4.498;2022-11-20T16:37:35;14.06;67.03
69944;DHT22;57257;48.408;-4.498;2022-11-20T16:40:00;14.09;66.97
69944;DHT22;57257;48.408;-4.498;2022-11-20T16:42:26;14.07;67.07
69944;DHT22;57257;48.408;-4.498;2022-11-20T16:44:51;14.04;67.07